createdAt,value
2022-12-03T00:03:08.758Z,17.34
2022-12-03T00:05:48.306Z,17.29
2022-12-03T00:08:33.846Z,17.32
2022-12-03T00:11:30.857Z,17.25
2022-12-03T00:14:20.988Z,17.31
2022-12-03T00:17:11.756Z,17.30
2022-12-03T00:22:37.024Z,17.22
2022-12-03T00:28:04.936Z,17.22
2022-12-03T00:30:49.524Z,17.22
2022-12-03T00:33:26.020Z,17.18
2022-12-03T00:36:24.876Z,17.21
2022-12-03T00:38:57.473Z,17.15
2022-12-03T00:41:52.301Z,17.20
2022-12-03T00:44:25.178Z,17.13
2022-12-03T00:49:51.687Z,17.08
2022-12-03T00:52:44.928Z,17.15
2022-12-03T00:55:17.701Z,17.06
2022-12-03T00:57:50.505Z,17.06
2022-12-03T01:00:41.418Z,17.12
2022-12-03T01:06:11.347Z,16.99
2022-12-03T01:08:43.968Z,16.98
2022-12-03T01:11:38.638Z,17.05
2022-12-03T01:14:29.737Z,17.04
2022-12-03T01:17:02.477Z,16.96
2022-12-03T01:19:35.956Z,16.93
2022-12-03T01:22:08.865Z,16.93
2022-12-03T01:25:02.912Z,17.01
2022-12-03T01:27:35.585Z,16.92
2022-12-03T01:33:03.870Z,16.89
2022-12-03T01:35:37.521Z,16.84
2022-12-03T01:38:10.090Z,16.83
2022-12-03T01:41:05.915Z,16.88
2022-12-03T01:43:55.257Z,16.85
2022-12-03T01:46:50.902Z,16.79
2022-12-03T01:49:45.697Z,16.85
2022-12-03T01:52:44.292Z,16.87
2022-12-03T01:55:31.428Z,16.81
2022-12-03T01:58:48.826Z,16.85
2022-12-03T02:01:21.714Z,16.72
2022-12-03T02:04:13.893Z,16.71
2022-12-03T02:07:37.017Z,16.78
2022-12-03T02:10:38.176Z,16.67
2022-12-03T02:13:33.946Z,16.65
2022-12-03T02:16:22.085Z,16.69
2022-12-03T02:26:10.136Z,16.67
2022-12-03T02:29:06.357Z,16.67
2022-12-03T02:31:39.176Z,16.60
2022-12-03T02:35:01.957Z,16.64
2022-12-03T02:42:01.455Z,16.65
2022-12-03T02:45:25.913Z,16.64
2022-12-03T02:48:56.910Z,16.61
2022-12-03T02:51:29.646Z,16.52
2022-12-03T02:54:18.859Z,16.54
2022-12-03T02:57:12.913Z,16.55
2022-12-03T03:00:12.627Z,16.46
2022-12-03T03:03:10.124Z,16.43
2022-12-03T03:06:06.136Z,16.52
2022-12-03T03:09:06.475Z,16.42
2022-12-03T03:11:39.268Z,16.41
2022-12-03T03:14:16.282Z,16.41
2022-12-03T03:17:04.660Z,16.44
2022-12-03T03:26:22.349Z,16.50
2022-12-03T03:32:22.750Z,16.39
2022-12-03T03:35:23.532Z,16.31
2022-12-03T03:38:20.071Z,16.31
2022-12-03T03:40:53.947Z,16.31
2022-12-03T03:43:52.991Z,16.30
2022-12-03T03:49:56.430Z,16.33
2022-12-03T03:52:50.722Z,16.35
2022-12-03T03:55:24.358Z,16.26
2022-12-03T03:58:21.936Z,16.32
2022-12-03T04:01:24.324Z,16.30
2022-12-03T04:07:22.618Z,16.21
2022-12-03T04:11:13.409Z,16.33
2022-12-03T04:13:46.041Z,16.21
2022-12-03T04:16:42.065Z,16.26
2022-12-03T04:20:00.939Z,16.18
2022-12-03T04:22:54.397Z,16.25
2022-12-03T04:25:50.900Z,16.16
2022-12-03T04:38:34.622Z,16.15
2022-12-03T04:41:07.350Z,16.12
2022-12-03T04:44:05.924Z,16.09
2022-12-03T04:46:41.244Z,16.06
2022-12-03T04:49:13.914Z,16.06
2022-12-03T04:52:12.728Z,16.15
2022-12-03T04:55:08.032Z,16.04
2022-12-03T04:57:43.690Z,16.05
2022-12-03T05:01:09.053Z,16.02
2022-12-03T05:04:07.774Z,16.12
2022-12-03T05:06:41.251Z,16.01
2022-12-03T05:10:01.753Z,16.12
2022-12-03T05:12:34.668Z,16.02
2022-12-03T05:15:18.898Z,16.04
2022-12-03T05:17:51.567Z,16.00
2022-12-03T05:23:54.936Z,16.06
2022-12-03T05:29:23.350Z,15.97
2022-12-03T05:31:55.971Z,15.94
2022-12-03T05:34:54.710Z,15.93
2022-12-03T05:37:53.138Z,15.93
2022-12-03T05:40:25.984Z,15.94
2022-12-03T05:43:17.241Z,16.02
2022-12-03T05:46:41.245Z,16.02
2022-12-03T05:52:36.359Z,15.95
2022-12-03T05:58:06.300Z,15.99
2022-12-03T06:01:05.216Z,15.97
2022-12-03T06:04:00.625Z,16.08
2022-12-03T06:06:54.171Z,16.12
2022-12-03T06:12:22.398Z,16.16
2022-12-03T06:14:55.505Z,16.18
2022-12-03T06:17:46.964Z,16.30
2022-12-03T06:20:43.886Z,16.30
2022-12-03T06:23:16.606Z,16.39
2022-12-03T06:25:49.236Z,16.45
2022-12-03T06:28:38.073Z,16.58
2022-12-03T06:31:10.690Z,16.60
2022-12-03T06:34:08.623Z,16.74
2022-12-03T06:36:41.386Z,16.77
2022-12-03T06:39:43.848Z,16.83
2022-12-03T06:42:12.274Z,16.92
2022-12-03T06:45:00.101Z,17.04
2022-12-03T06:47:32.734Z,17.08
2022-12-03T06:50:30.611Z,17.14
2022-12-03T06:53:04.275Z,17.23
2022-12-03T06:59:26.912Z,17.44
2022-12-03T07:03:17.684Z,17.52
2022-12-03T07:05:50.533Z,17.55
2022-12-03T07:08:40.846Z,17.63
2022-12-03T07:11:41.219Z,17.63
2022-12-03T07:14:16.855Z,17.66
2022-12-03T07:17:17.231Z,17.76
2022-12-03T07:20:16.430Z,17.75
2022-12-03T07:22:49.231Z,17.79
2022-12-03T07:25:49.593Z,17.86
2022-12-03T07:28:49.713Z,17.86
2022-12-03T07:31:34.964Z,17.89
2022-12-03T07:34:31.530Z,17.94
2022-12-03T07:37:25.138Z,17.96
2022-12-03T07:39:57.752Z,17.91
2022-12-03T07:45:19.155Z,17.93
2022-12-03T07:47:57.873Z,17.93
2022-12-03T07:50:30.483Z,17.95
2022-12-03T07:53:19.675Z,18.01
2022-12-03T07:56:11.065Z,18.01
2022-12-03T07:59:09.632Z,17.97
2022-12-03T08:02:04.576Z,18.04
2022-12-03T08:04:37.329Z,17.96
2022-12-03T08:07:10.008Z,17.97
2022-12-03T08:10:07.442Z,17.97
2022-12-03T08:12:40.434Z,17.97
2022-12-03T08:15:40.828Z,18.06
2022-12-03T08:18:40.545Z,18.06
2022-12-03T08:21:37.398Z,18.00
2022-12-03T08:24:43.732Z,18.08
2022-12-03T08:27:38.058Z,18.09
2022-12-03T08:31:11.083Z,18.03
2022-12-03T08:33:40.360Z,18.05
2022-12-03T08:36:36.544Z,18.13
2022-12-03T09:06:06.227Z,18.17
2022-12-03T09:15:23.199Z,18.30
2022-12-03T09:18:24.281Z,18.14
2022-12-03T09:21:52.491Z,18.20
2022-12-03T09:28:54.650Z,18.19
2022-12-03T09:31:50.306Z,18.23
2022-12-03T09:34:54.424Z,18.23
2022-12-03T09:38:27.788Z,18.24
2022-12-03T12:54:51.717Z,18.84
2022-12-03T13:32:06.010Z,18.65
2022-12-03T13:35:55.749Z,18.70
2022-12-03T13:38:50.054Z,18.69
2022-12-03T13:41:41.366Z,18.62
2022-12-03T13:44:31.715Z,18.60
2022-12-03T13:47:25.895Z,18.63
2022-12-03T13:50:04.882Z,18.59
2022-12-03T13:52:47.298Z,18.60
2022-12-03T13:55:30.730Z,18.61
2022-12-03T13:58:03.511Z,18.60
2022-12-03T14:00:36.300Z,18.60
2022-12-03T14:03:21.496Z,18.62
2022-12-03T14:05:54.127Z,18.58
2022-12-03T14:08:26.796Z,18.58
2022-12-03T14:27:44.005Z,18.60
2022-12-03T14:30:31.465Z,18.64
2022-12-03T14:33:04.207Z,18.57
2022-12-03T14:35:37.257Z,18.57
2022-12-03T14:38:09.802Z,18.57
2022-12-03T14:40:51.975Z,18.60
2022-12-03T14:43:24.608Z,18.56
2022-12-03T14:45:57.212Z,18.57
2022-12-03T14:51:16.596Z,18.57
2022-12-03T14:54:01.406Z,18.61
2022-12-03T14:56:34.311Z,18.53
2022-12-03T14:59:06.938Z,18.56
2022-12-03T15:01:40.846Z,18.53
2022-12-03T15:04:31.026Z,18.59
2022-12-03T15:09:51.039Z,18.51
2022-12-03T15:12:38.503Z,18.50
2022-12-03T15:16:01.672Z,18.61
2022-12-03T15:21:53.799Z,18.49
2022-12-03T15:31:13.696Z,18.48
2022-12-03T15:37:32.754Z,18.38
2022-12-03T15:40:06.538Z,18.31
2022-12-03T15:42:51.773Z,18.32
2022-12-03T15:45:58.160Z,18.36
2022-12-03T15:48:31.524Z,18.26
2022-12-03T15:51:38.310Z,18.29
2022-12-03T15:54:23.676Z,18.28
2022-12-03T15:57:19.241Z,18.30
2022-12-03T15:59:57.836Z,18.21
2022-12-03T16:05:51.891Z,18.24
2022-12-03T16:08:35.932Z,18.18
2022-12-03T16:11:20.293Z,18.17
2022-12-03T16:14:06.732Z,18.14
2022-12-03T16:20:59.872Z,18.09
2022-12-03T16:24:04.426Z,18.15
2022-12-03T16:32:43.823Z,18.01
2022-12-03T16:35:34.841Z,18.05
2022-12-03T16:38:44.622Z,18.04
2022-12-03T16:41:32.381Z,18.02
2022-12-03T16:48:00.649Z,17.95
2022-12-03T16:50:42.575Z,17.95
2022-12-03T16:54:05.590Z,18.02
2022-12-03T16:56:38.237Z,17.91
2022-12-03T16:59:10.897Z,17.88
2022-12-03T17:01:43.849Z,17.86
2022-12-03T17:04:16.511Z,17.85
2022-12-03T17:06:49.083Z,17.83
2022-12-03T17:09:21.612Z,17.82
2022-12-03T17:11:54.272Z,17.81
2022-12-03T17:14:32.807Z,17.79
2022-12-03T17:19:47.395Z,17.75
2022-12-03T17:22:19.953Z,17.73
2022-12-03T17:25:02.943Z,17.73
2022-12-03T17:36:14.996Z,17.67
2022-12-03T17:58:06.505Z,17.55
2022-12-03T18:00:39.143Z,17.50
2022-12-03T18:03:17.831Z,17.48
2022-12-03T18:05:50.350Z,17.48
2022-12-03T18:08:22.924Z,17.49
2022-12-03T18:10:58.545Z,17.50
2022-12-03T18:13:31.144Z,17.52
2022-12-03T18:16:03.911Z,17.55
2022-12-03T18:18:36.677Z,17.58
2022-12-03T18:21:09.326Z,17.60
2022-12-03T18:23:42.737Z,17.63
2022-12-03T18:26:15.309Z,17.67
2022-12-03T18:28:59.795Z,17.75
2022-12-03T18:31:32.327Z,17.76
2022-12-03T18:34:07.905Z,17.80
2022-12-03T18:36:40.419Z,17.83
2022-12-03T18:39:41.669Z,17.96
2022-12-03T18:42:20.326Z,17.91
2022-12-03T18:44:56.048Z,17.93
2022-12-03T18:47:29.511Z,17.97
2022-12-03T18:50:02.213Z,18.01
2022-12-03T18:52:34.771Z,18.02
2022-12-03T18:55:08.603Z,18.05
2022-12-03T18:57:41.162Z,18.10
2022-12-03T19:00:17.588Z,18.11
2022-12-03T19:03:02.910Z,18.14
2022-12-03T19:05:36.428Z,18.17
2022-12-03T19:08:14.744Z,18.19
2022-12-03T19:10:57.039Z,18.22
2022-12-03T19:13:46.469Z,18.26
2022-12-03T19:35:21.473Z,18.22
2022-12-03T19:38:40.498Z,18.27
2022-12-03T19:51:36.356Z,18.08
2022-12-03T19:54:20.037Z,18.05
2022-12-03T19:56:54.977Z,18.02
2022-12-03T19:59:27.816Z,17.98
2022-12-03T20:02:00.431Z,17.96
2022-12-03T20:04:33.056Z,17.92
2022-12-03T20:07:06.712Z,17.90
2022-12-03T20:10:03.487Z,17.96
2022-12-03T20:15:37.631Z,17.84
2022-12-03T20:18:16.046Z,17.83
2022-12-03T20:20:48.631Z,17.80
2022-12-03T20:23:21.287Z,17.78
2022-12-03T20:25:54.982Z,17.74
2022-12-03T20:28:29.304Z,17.74
2022-12-03T20:31:14.731Z,17.69
2022-12-03T20:33:51.601Z,17.66
2022-12-03T20:36:26.315Z,17.70
2022-12-03T20:39:02.948Z,17.66
2022-12-03T20:41:37.449Z,17.62
2022-12-03T20:44:10.236Z,17.61
2022-12-03T20:46:43.002Z,17.57
2022-12-03T20:49:15.937Z,17.55
2022-12-03T20:51:50.297Z,17.53
2022-12-03T20:54:23.588Z,17.52
2022-12-03T20:56:56.141Z,17.52
2022-12-03T20:59:28.644Z,17.49
2022-12-03T21:04:57.434Z,17.46
2022-12-03T21:07:30.130Z,17.44
2022-12-03T21:10:02.856Z,17.41
2022-12-03T21:12:35.432Z,17.41
2022-12-03T21:15:08.485Z,17.39
2022-12-03T21:17:41.067Z,17.36
2022-12-03T21:20:19.372Z,17.35
2022-12-03T21:22:53.684Z,17.33
2022-12-03T21:25:27.942Z,17.31
2022-12-03T21:28:00.447Z,17.54
2022-12-03T21:30:45.585Z,17.38
2022-12-03T21:36:19.886Z,17.29
2022-12-03T21:38:53.648Z,17.29
2022-12-03T21:41:38.612Z,17.37
2022-12-03T21:44:26.516Z,17.34
2022-12-03T21:47:11.640Z,17.38
2022-12-03T21:49:51.934Z,17.42
2022-12-03T21:52:41.843Z,17.52
2022-12-03T21:55:17.393Z,17.48
2022-12-03T21:57:58.438Z,17.52
2022-12-03T22:00:34.386Z,17.55
2022-12-03T22:03:16.269Z,17.62
2022-12-03T22:05:50.280Z,17.61
2022-12-03T22:08:23.019Z,17.66
2022-12-03T22:25:08.462Z,17.95
2022-12-03T22:27:41.171Z,17.89
2022-12-03T22:30:35.633Z,17.90
2022-12-03T22:33:50.983Z,17.99
2022-12-03T22:36:28.897Z,17.94
2022-12-03T22:39:49.618Z,18.02
2022-12-03T22:43:03.704Z,18.03
2022-12-03T22:45:56.323Z,18.05
2022-12-03T22:53:04.451Z,17.97
2022-12-03T22:55:57.711Z,18.01
2022-12-03T22:58:45.814Z,17.99
2022-12-03T23:02:03.722Z,17.98
2022-12-03T23:04:57.405Z,17.98
2022-12-03T23:13:23.270Z,17.85
2022-12-03T23:16:02.636Z,17.83
2022-12-03T23:18:35.224Z,17.81
2022-12-03T23:21:28.999Z,17.81
2022-12-03T23:24:08.770Z,17.76
2022-12-03T23:26:56.685Z,17.78
2022-12-03T23:29:34.087Z,17.69
2022-12-03T23:32:06.902Z,17.67
2022-12-03T23:34:39.524Z,17.65
2022-12-03T23:37:22.352Z,17.63
2022-12-03T23:39:56.509Z,17.60
2022-12-03T23:42:29.313Z,17.85
2022-12-03T23:45:02.205Z,17.62
2022-12-03T23:50:23.772Z,17.56
2022-12-03T23:53:02.860Z,17.55
2022-12-03T23:55:40.571Z,17.50
2022-12-03T23:58:28.930Z,17.51
